Chisholm Hibbing Airport Hibbing US
ICAO: KHIB
IATA: HIB
Category: Large
Scheduled Services: Yes

Elevation: 1354 ft
TransAlt. 18000 ft.

Airport Communications:
DULUTH APP/DEP:125.45
ASOS:126.425
DULUTH CLNC DEL:127.4
PRINCETON RDO:122.6
CTAF/UNICOM:123

KHIB Zoom In..

Runways:

(A) RW 04 length 3075 ft width 75 ft
---- / hdg 47

(B) RW 13 length 6758 ft width 150 ft
ILS 110.50 / hdg 130

(C) RW 22 length 3075 ft width 75 ft
---- / hdg 227

(D) RW 31 length 6758 ft width 150 ft
ILS 109.50 / hdg 310

Location; KHIB
Day. 23 / Time. 09.53 Zulu
* Altimeter: 30.08
* Temperature: 10° c. 50°f.
* Wind from: 000° Speed 00 kn.
Dewpoint: 10° c.
Visibility: 3 Statute Miles.
Clouds: Clear (automated report).
Conditions: Mist.

KHIB 230953Z AUTO 00000KT 3SM BR CLR 10/10 A3008 RMK AO2 SLP187 T01000100


Wind - Calm.

 
 
jpsmedia.com for Web Design worldairports.se 2018   terms of use